KLFI/LFI METAR and TAF weather

Enter ICAO airport designator
Station Type Date Time Source
KLFI METAR 2019/08/23 14:56 UTC NOAA

KLFI 231456Z 23004KT 9SM SCT160 29/23 A2998 RMK AO2A SLP158 T02920234 55001 $


Station Type Date Time Source
KLFI Decoded METAR 2019/08/23 14:56 UTC NOAA

Station name not available
Aug 23, 2019 - 10:56 AM EDT / 2019.08.23 1456 UTC
Wind: from the SW (230 degrees) at 5 MPH (4 KT):0
Visibility: 9 mile(s):0
Sky conditions: partly cloudy
Temperature: 84.6 F (29.2 C)
Dew Point: 74.1 F (23.4 C)
Relative Humidity: 71%
Pressure (altimeter): 29.98 in. Hg (1015 hPa)
Pressure tendency: 0.00 inches (0.1 hPa) lower than three hours ago
ob: KLFI 231456Z 23004KT 9SM SCT160 29/23 A2998 RMK AO2A SLP158 T02920234 55001
cycle: 15

Station Type Date Time Source
KLFI TAF 2019/08/23 14:51 UTC NOAA

TAF
AMD KLFI 231445Z 2314/2415 24012KT 9999 BKN140 QNH2994INS
TEMPO 2320/2324 VRB35G50KT 3200 TSRA BKN020CB
BECMG 2401/2402 02012KT 8000 SHRA OVC010 QNH2991INS
BECMG 2409/2410 03010G15KT 9999 NSW BKN020 BKN120 QNH3005INS TX29/2319Z TN21/2409Z

Example: see airport list